sensor_id;sensor_type;location;lat;lon;timestamp;pressure;altitude;pressure_sealevel;temperature;humidity
12969;BME280;6549;53.128;8.182;2023-07-02T00:02:16;100172.31;;;15.72;100.00
12969;BME280;6549;53.128;8.182;2023-07-02T00:05:17;100167.13;;;15.75;100.00
12969;BME280;6549;53.128;8.182;2023-07-02T00:08:18;100169.53;;;15.72;100.00
12969;BME280;6549;53.128;8.182;2023-07-02T00:11:18;100171.88;;;15.74;100.00
12969;BME280;6549;53.128;8.182;2023-07-02T00:14:18;100164.34;;;15.75;100.00
12969;BME280;6549;53.128;8.182;2023-07-02T00:17:19;100160.00;;;15.73;100.00
12969;BME280;6549;53.128;8.182;2023-07-02T00:20:20;100164.34;;;15.75;100.00
12969;BME280;6549;53.128;8.182;2023-07-02T00:23:20;100155.25;;;15.74;100.00
12969;BME280;6549;53.128;8.182;2023-07-02T00:26:21;100167.81;;;15.79;100.00
12969;BME280;6549;53.128;8.182;2023-07-02T00:29:21;100162.25;;;15.79;100.00
12969;BME280;6549;53.128;8.182;2023-07-02T00:32:22;100157.94;;;15.78;100.00
12969;BME280;6549;53.128;8.182;2023-07-02T00:35:22;100170.72;;;15.88;100.00
12969;BME280;6549;53.128;8.182;2023-07-02T00:38:22;100167.28;;;15.84;100.00
12969;BME280;6549;53.128;8.182;2023-07-02T00:41:23;100167.28;;;15.84;100.00
12969;BME280;6549;53.128;8.182;2023-07-02T00:44:24;100167.81;;;15.79;100.00
12969;BME280;6549;53.128;8.182;2023-07-02T00:47:24;100167.81;;;15.79;100.00
12969;BME280;6549;53.128;8.182;2023-07-02T00:50:25;100163.81;;;15.80;100.00
12969;BME280;6549;53.128;8.182;2023-07-02T00:53:26;100165.44;;;15.77;100.00
12969;BME280;6549;53.128;8.182;2023-07-02T00:56:27;100156.03;;;15.75;100.00
12969;BME280;6549;53.128;8.182;2023-07-02T00:59:28;100157.25;;;15.73;100.00
12969;BME280;6549;53.128;8.182;2023-07-02T01:02:29;100161.56;;;15.75;100.00
12969;BME280;6549;53.128;8.182;2023-07-02T01:05:30;100160.69;;;15.78;100.00
12969;BME280;6549;53.128;8.182;2023-07-02T01:08:35;100156.03;;;15.75;100.00
12969;BME280;6549;53.128;8.182;2023-07-02T01:11:42;100160.78;;;15.74;100.00
12969;BME280;6549;53.128;8.182;2023-07-02T01:14:48;100167.22;;;15.71;100.00
12969;BME280;6549;53.128;8.182;2023-07-02T01:17:48;100161.16;;;15.60;100.00
12969;BME280;6549;53.128;8.182;2023-07-02T01:20:49;100160.38;;;15.59;100.00
12969;BME280;6549;53.128;8.182;2023-07-02T01:23:49;100163.66;;;15.54;100.00
12969;BME280;6549;53.128;8.182;2023-07-02T01:26:50;100153.81;;;15.53;100.00
12969;BME280;6549;53.128;8.182;2023-07-02T01:29:52;100157.50;;;15.47;100.00
12969;BME280;6549;53.128;8.182;2023-07-02T01:32:52;100156.88;;;15.39;100.00
12969;BME280;6549;53.128;8.182;2023-07-02T01:35:53;100151.00;;;15.37;100.00
12969;BME280;6549;53.128;8.182;2023-07-02T01:38:53;100149.59;;;15.29;100.00
12969;BME280;6549;53.128;8.182;2023-07-02T01:41:56;100159.63;;;15.23;100.00
12969;BME280;6549;53.128;8.182;2023-07-02T01:45:06;100159.03;;;15.15;100.00
12969;BME280;6549;53.128;8.182;2023-07-02T01:48:07;100166.72;;;15.08;100.00
12969;BME280;6549;53.128;8.182;2023-07-02T01:51:08;100166.81;;;15.04;100.00
12969;BME280;6549;53.128;8.182;2023-07-02T01:54:08;100166.53;;;14.99;100.00
12969;BME280;6549;53.128;8.182;2023-07-02T01:57:08;100169.38;;;14.95;100.00
12969;BME280;6549;53.128;8.182;2023-07-02T02:00:09;100175.41;;;14.90;100.00
12969;BME280;6549;53.128;8.182;2023-07-02T02:03:10;100164.44;;;14.87;100.00
12969;BME280;6549;53.128;8.182;2023-07-02T02:06:10;100164.50;;;14.83;100.00
12969;BME280;6549;53.128;8.182;2023-07-02T02:09:11;100172.88;;;14.79;100.00
12969;BME280;6549;53.128;8.182;2023-07-02T02:12:11;100184.78;;;14.76;100.00
12969;BME280;6549;53.128;8.182;2023-07-02T02:15:13;100188.06;;;14.71;100.00
12969;BME280;6549;53.128;8.182;2023-07-02T02:18:14;100192.88;;;14.67;100.00
12969;BME280;6549;53.128;8.182;2023-07-02T02:21:14;100184.66;;;14.64;100.00
12969;BME280;6549;53.128;8.182;2023-07-02T02:24:15;100189.91;;;14.58;100.00
12969;BME280;6549;53.128;8.182;2023-07-02T02:27:15;100177.72;;;14.56;100.00
12969;BME280;6549;53.128;8.182;2023-07-02T02:30:16;100183.31;;;14.52;100.00
12969;BME280;6549;53.128;8.182;2023-07-02T02:33:17;100175.25;;;14.42;100.00
12969;BME280;6549;53.128;8.182;2023-07-02T02:36:17;100182.47;;;14.35;100.00
12969;BME280;6549;53.128;8.182;2023-07-02T02:39:17;100184.91;;;14.30;100.00
12969;BME280;6549;53.128;8.182;2023-07-02T02:42:18;100186.63;;;14.24;100.00
12969;BME280;6549;53.128;8.182;2023-07-02T02:45:18;100183.06;;;14.23;100.00
12969;BME280;6549;53.128;8.182;2023-07-02T02:48:19;100181.59;;;14.19;100.00
12969;BME280;6549;53.128;8.182;2023-07-02T02:51:20;100183.25;;;14.13;100.00
12969;BME280;6549;53.128;8.182;2023-07-02T02:54:20;100185.78;;;14.04;100.00
12969;BME280;6549;53.128;8.182;2023-07-02T02:57:21;100185.88;;;14.00;100.00
12969;BME280;6549;53.128;8.182;2023-07-02T03:00:21;100193.06;;;13.94;100.00
12969;BME280;6549;53.128;8.182;2023-07-02T03:03:22;100190.75;;;13.92;100.00
12969;BME280;6549;53.128;8.182;2023-07-02T03:06:24;100201.88;;;13.89;100.00
12969;BME280;6549;53.128;8.182;2023-07-02T03:09:24;100190.44;;;13.87;100.00
12969;BME280;6549;53.128;8.182;2023-07-02T03:12:25;100196.75;;;13.87;100.00
12969;BME280;6549;53.128;8.182;2023-07-02T03:15:26;100201.56;;;13.83;100.00
12969;BME280;6549;53.128;8.182;2023-07-02T03:18:26;100191.41;;;13.77;100.00
12969;BME280;6549;53.128;8.182;2023-07-02T03:21:28;100199.34;;;13.75;100.00
12969;BME280;6549;53.128;8.182;2023-07-02T03:24:30;100200.94;;;13.72;100.00
12969;BME280;6549;53.128;8.182;2023-07-02T03:27:30;100207.63;;;13.75;100.00
12969;BME280;6549;53.128;8.182;2023-07-02T03:30:31;100209.59;;;13.74;100.00
12969;BME280;6549;53.128;8.182;2023-07-02T03:33:32;100202.09;;;13.75;100.00
12969;BME280;6549;53.128;8.182;2023-07-02T03:36:32;100204.41;;;13.76;100.00
12969;BME280;6549;53.128;8.182;2023-07-02T03:39:33;100207.16;;;13.80;100.00
12969;BME280;6549;53.128;8.182;2023-07-02T03:42:33;100200.47;;;13.77;100.00
12969;BME280;6549;53.128;8.182;2023-07-02T03:45:34;100200.91;;;13.76;100.00
12969;BME280;6549;53.128;8.182;2023-07-02T03:48:34;100204.78;;;13.78;100.00
12969;BME280;6549;53.128;8.182;2023-07-02T03:51:35;100202.44;;;13.77;100.00
12969;BME280;6549;53.128;8.182;2023-07-02T03:54:35;100202.03;;;13.78;100.00
12969;BME280;6549;53.128;8.182;2023-07-02T03:57:36;100194.47;;;13.82;100.00
12969;BME280;6549;53.128;8.182;2023-07-02T04:00:37;100210.94;;;13.89;100.00
12969;BME280;6549;53.128;8.182;2023-07-02T04:03:42;100210.09;;;13.92;100.00
12969;BME280;6549;53.128;8.182;2023-07-02T04:06:47;100213.97;;;13.95;100.00
12969;BME280;6549;53.128;8.182;2023-07-02T04:09:47;100214.34;;;13.97;100.00
12969;BME280;6549;53.128;8.182;2023-07-02T04:12:48;100213.44;;;14.04;100.00
12969;BME280;6549;53.128;8.182;2023-07-02T04:15:49;100214.84;;;14.12;100.00
12969;BME280;6549;53.128;8.182;2023-07-02T04:18:49;100214.38;;;14.17;100.00
12969;BME280;6549;53.128;8.182;2023-07-02T04:21:50;100213.81;;;14.25;100.00
12969;BME280;6549;53.128;8.182;2023-07-02T04:24:50;100227.53;;;14.32;100.00
12969;BME280;6549;53.128;8.182;2023-07-02T04:27:51;100223.03;;;14.42;100.00
12969;BME280;6549;53.128;8.182;2023-07-02T04:30:56;100223.59;;;14.53;100.00
12969;BME280;6549;53.128;8.182;2023-07-02T04:33:57;100222.03;;;14.52;100.00
12969;BME280;6549;53.128;8.182;2023-07-02T04:36:57;100225.44;;;14.60;100.00
12969;BME280;6549;53.128;8.182;2023-07-02T04:39:57;100231.25;;;14.65;100.00
12969;BME280;6549;53.128;8.182;2023-07-02T04:42:58;100236.28;;;14.70;100.00
12969;BME280;6549;53.128;8.182;2023-07-02T04:45:58;100239.69;;;14.78;100.00
12969;BME280;6549;53.128;8.182;2023-07-02T04:48:59;100235.69;;;14.79;100.00
12969;BME280;6549;53.128;8.182;2023-07-02T04:51:59;100237.56;;;14.86;100.00
12969;BME280;6549;53.128;8.182;2023-07-02T04:54:59;100246.91;;;14.92;100.00
12969;BME280;6549;53.128;8.182;2023-07-02T04:58:00;100244.88;;;14.96;100.00
12969;BME280;6549;53.128;8.182;2023-07-02T05:01:00;100245.13;;;15.01;100.00
12969;BME280;6549;53.128;8.182;2023-07-02T05:04:00;100246.59;;;15.06;100.00
12969;BME280;6549;53.128;8.182;2023-07-02T05:07:01;100244.41;;;15.17;100.00
12969;BME280;6549;53.128;8.182;2023-07-02T05:10:01;100247.38;;;15.26;100.00
12969;BME280;6549;53.128;8.182;2023-07-02T05:13:01;100249.38;;;15.42;100.00
12969;BME280;6549;53.128;8.182;2023-07-02T05:16:02;100242.44;;;15.50;100.00
12969;BME280;6549;53.128;8.182;2023-07-02T05:19:02;100246.56;;;15.61;100.00
12969;BME280;6549;53.128;8.182;2023-07-02T05:22:03;100246.22;;;15.76;100.00
12969;BME280;6549;53.128;8.182;2023-07-02T05:25:03;100251.50;;;15.86;100.00
12969;BME280;6549;53.128;8.182;2023-07-02T05:28:04;100254.44;;;15.95;100.00
12969;BME280;6549;53.128;8.182;2023-07-02T05:31:04;100258.94;;;16.05;100.00
12969;BME280;6549;53.128;8.182;2023-07-02T05:34:04;100258.91;;;16.22;100.00
12969;BME280;6549;53.128;8.182;2023-07-02T05:37:05;100258.97;;;16.34;100.00
12969;BME280;6549;53.128;8.182;2023-07-02T05:40:06;100259.50;;;16.45;100.00
12969;BME280;6549;53.128;8.182;2023-07-02T05:43:06;100259.56;;;16.58;100.00
12969;BME280;6549;53.128;8.182;2023-07-02T05:46:07;100266.91;;;16.65;100.00
12969;BME280;6549;53.128;8.182;2023-07-02T05:49:07;100260.19;;;16.78;100.00
12969;BME280;6549;53.128;8.182;2023-07-02T05:52:08;100258.13;;;16.95;100.00
12969;BME280;6549;53.128;8.182;2023-07-02T05:55:08;100266.56;;;17.04;100.00
12969;BME280;6549;53.128;8.182;2023-07-02T05:58:10;100271.94;;;17.11;100.00
12969;BME280;6549;53.128;8.182;2023-07-02T06:01:10;100282.81;;;17.18;100.00
12969;BME280;6549;53.128;8.182;2023-07-02T06:04:11;100275.16;;;17.35;100.00
12969;BME280;6549;53.128;8.182;2023-07-02T06:07:11;100278.09;;;17.57;100.00
12969;BME280;6549;53.128;8.182;2023-07-02T06:10:11;100282.78;;;17.72;100.00
12969;BME280;6549;53.128;8.182;2023-07-02T06:13:12;100277.84;;;17.38;100.00
12969;BME280;6549;53.128;8.182;2023-07-02T06:16:15;100279.03;;;17.12;100.00
12969;BME280;6549;53.128;8.182;2023-07-02T06:19:16;100283.47;;;17.10;100.00
12969;BME280;6549;53.128;8.182;2023-07-02T06:22:16;100281.06;;;17.24;100.00
12969;BME280;6549;53.128;8.182;2023-07-02T06:25:16;100293.63;;;17.54;100.00
12969;BME280;6549;53.128;8.182;2023-07-02T06:28:17;100295.56;;;17.82;100.00
12969;BME280;6549;53.128;8.182;2023-07-02T06:31:17;100297.41;;;18.11;100.00
12969;BME280;6549;53.128;8.182;2023-07-02T06:34:17;100289.72;;;18.27;100.00
12969;BME280;6549;53.128;8.182;2023-07-02T06:37:18;100292.00;;;18.29;100.00
12969;BME280;6549;53.128;8.182;2023-07-02T06:40:18;100305.66;;;18.49;100.00
12969;BME280;6549;53.128;8.182;2023-07-02T06:43:18;100306.13;;;18.34;100.00
12969;BME280;6549;53.128;8.182;2023-07-02T06:46:19;100309.31;;;18.46;100.00
12969;BME280;6549;53.128;8.182;2023-07-02T06:49:21;100316.78;;;18.61;100.00
12969;BME280;6549;53.128;8.182;2023-07-02T06:52:21;100319.72;;;18.79;100.00
12969;BME280;6549;53.128;8.182;2023-07-02T06:55:21;100320.34;;;19.05;100.00
12969;BME280;6549;53.128;8.182;2023-07-02T06:58:23;100337.19;;;19.23;100.00
12969;BME280;6549;53.128;8.182;2023-07-02T07:01:24;100329.06;;;19.07;100.00
12969;BME280;6549;53.128;8.182;2023-07-02T07:04:24;100325.56;;;18.60;100.00
12969;BME280;6549;53.128;8.182;2023-07-02T07:07:24;100336.72;;;18.81;100.00
12969;BME280;6549;53.128;8.182;2023-07-02T07:10:25;100336.16;;;19.08;100.00
12969;BME280;6549;53.128;8.182;2023-07-02T07:13:25;100346.56;;;18.95;100.00
12969;BME280;6549;53.128;8.182;2023-07-02T07:16:25;100337.38;;;18.85;100.00
12969;BME280;6549;53.128;8.182;2023-07-02T07:19:26;100339.72;;;19.09;100.00
12969;BME280;6549;53.128;8.182;2023-07-02T07:22:26;100360.97;;;19.37;100.00
12969;BME280;6549;53.128;8.182;2023-07-02T07:25:26;100353.63;;;19.30;100.00
12969;BME280;6549;53.128;8.182;2023-07-02T07:28:27;100356.06;;;19.19;100.00
12969;BME280;6549;53.128;8.182;2023-07-02T07:31:27;100356.56;;;19.27;100.00
12969;BME280;6549;53.128;8.182;2023-07-02T07:34:27;100362.00;;;19.52;100.00
12969;BME280;6549;53.128;8.182;2023-07-02T07:37:28;100357.94;;;19.75;100.00
12969;BME280;6549;53.128;8.182;2023-07-02T07:40:28;100353.63;;;19.83;100.00
12969;BME280;6549;53.128;8.182;2023-07-02T07:43:29;100360.91;;;20.21;100.00
12969;BME280;6549;53.128;8.182;2023-07-02T07:46:29;100357.44;;;20.07;100.00
12969;BME280;6549;53.128;8.182;2023-07-02T07:49:29;100371.13;;;19.53;100.00
12969;BME280;6549;53.128;8.182;2023-07-02T07:52:30;100370.63;;;19.02;100.00
12969;BME280;6549;53.128;8.182;2023-07-02T07:55:30;100370.81;;;19.29;100.00
12969;BME280;6549;53.128;8.182;2023-07-02T07:58:30;100364.94;;;19.80;100.00
12969;BME280;6549;53.128;8.182;2023-07-02T08:01:32;100376.25;;;20.25;100.00
12969;BME280;6549;53.128;8.182;2023-07-02T08:04:32;100366.38;;;19.93;100.00
12969;BME280;6549;53.128;8.182;2023-07-02T08:07:33;100375.66;;;19.90;100.00
12969;BME280;6549;53.128;8.182;2023-07-02T08:10:33;100372.66;;;20.15;95.23
12969;BME280;6549;53.128;8.182;2023-07-02T08:13:33;100367.75;;;20.29;89.94
12969;BME280;6549;53.128;8.182;2023-07-02T08:16:33;100380.84;;;20.59;87.22
12969;BME280;6549;53.128;8.182;2023-07-02T08:19:34;100377.31;;;20.86;88.95
12969;BME280;6549;53.128;8.182;2023-07-02T08:22:38;100376.84;;;20.87;86.55
12969;BME280;6549;53.128;8.182;2023-07-02T08:25:39;100384.00;;;20.97;89.22
12969;BME280;6549;53.128;8.182;2023-07-02T08:28:39;100379.31;;;21.03;77.52
12969;BME280;6549;53.128;8.182;2023-07-02T08:31:40;100380.09;;;21.04;73.88
12969;BME280;6549;53.128;8.182;2023-07-02T08:34:40;100379.34;;;21.22;75.69
12969;BME280;6549;53.128;8.182;2023-07-02T08:37:40;100381.97;;;21.34;80.88
12969;BME280;6549;53.128;8.182;2023-07-02T08:40:41;100379.78;;;21.29;77.27
12969;BME280;6549;53.128;8.182;2023-07-02T08:43:41;100385.53;;;21.44;80.93
12969;BME280;6549;53.128;8.182;2023-07-02T08:46:42;100371.59;;;21.17;85.71
12969;BME280;6549;53.128;8.182;2023-07-02T08:49:42;100375.88;;;21.54;100.00
12969;BME280;6549;53.128;8.182;2023-07-02T08:52:43;100381.66;;;20.96;100.00
12969;BME280;6549;53.128;8.182;2023-07-02T08:55:45;100388.94;;;20.57;100.00
12969;BME280;6549;53.128;8.182;2023-07-02T08:58:45;100406.06;;;19.97;100.00
12969;BME280;6549;53.128;8.182;2023-07-02T09:01:51;100406.06;;;19.97;100.00
12969;BME280;6549;53.128;8.182;2023-07-02T09:04:59;100407.06;;;20.52;100.00
12969;BME280;6549;53.128;8.182;2023-07-02T09:07:59;100405.88;;;20.99;100.00
12969;BME280;6549;53.128;8.182;2023-07-02T09:11:10;100406.97;;;21.38;96.93
12969;BME280;6549;53.128;8.182;2023-07-02T09:14:10;100406.00;;;21.59;91.22
12969;BME280;6549;53.128;8.182;2023-07-02T09:17:11;100407.88;;;21.44;90.51
12969;BME280;6549;53.128;8.182;2023-07-02T09:20:11;100425.28;;;21.30;88.30
12969;BME280;6549;53.128;8.182;2023-07-02T09:23:13;100412.09;;;21.39;77.00
12969;BME280;6549;53.128;8.182;2023-07-02T09:26:20;100407.88;;;21.53;75.89
12969;BME280;6549;53.128;8.182;2023-07-02T09:29:24;100410.69;;;21.44;71.06
12969;BME280;6549;53.128;8.182;2023-07-02T09:32:26;100405.16;;;21.86;72.71
12969;BME280;6549;53.128;8.182;2023-07-02T09:35:26;100415.91;;;21.69;63.62
12969;BME280;6549;53.128;8.182;2023-07-02T09:38:27;100409.75;;;21.38;65.22
12969;BME280;6549;53.128;8.182;2023-07-02T09:41:27;100408.53;;;21.30;64.86
12969;BME280;6549;53.128;8.182;2023-07-02T09:44:32;100427.44;;;20.98;64.07
12969;BME280;6549;53.128;8.182;2023-07-02T09:47:35;100416.56;;;20.73;65.51
12969;BME280;6549;53.128;8.182;2023-07-02T09:50:38;100426.16;;;20.72;66.13
12969;BME280;6549;53.128;8.182;2023-07-02T09:53:40;100437.75;;;20.43;69.65
12969;BME280;6549;53.128;8.182;2023-07-02T09:56:40;100428.44;;;20.15;68.82
12969;BME280;6549;53.128;8.182;2023-07-02T09:59:41;100429.28;;;19.94;73.30
12969;BME280;6549;53.128;8.182;2023-07-02T10:02:47;100436.53;;;20.13;81.72
12969;BME280;6549;53.128;8.182;2023-07-02T10:05:48;100435.22;;;20.36;75.57
12969;BME280;6549;53.128;8.182;2023-07-02T10:08:55;100442.16;;;20.90;69.97
12969;BME280;6549;53.128;8.182;2023-07-02T10:11:55;100440.47;;;21.56;69.06
12969;BME280;6549;53.128;8.182;2023-07-02T10:14:57;100435.75;;;21.99;63.74
12969;BME280;6549;53.128;8.182;2023-07-02T10:18:01;100437.72;;;22.16;61.10
12969;BME280;6549;53.128;8.182;2023-07-02T10:21:22;100458.25;;;22.04;61.85
12969;BME280;6549;53.128;8.182;2023-07-02T10:24:22;100469.34;;;21.07;61.79
12969;BME280;6549;53.128;8.182;2023-07-02T10:27:39;100469.19;;;20.35;67.98
12969;BME280;6549;53.128;8.182;2023-07-02T10:30:40;100457.44;;;20.58;75.03
12969;BME280;6549;53.128;8.182;2023-07-02T10:33:43;100458.38;;;21.31;76.66
12969;BME280;6549;53.128;8.182;2023-07-02T10:36:43;100463.78;;;21.71;72.82
12969;BME280;6549;53.128;8.182;2023-07-02T10:39:44;100460.91;;;22.08;72.15
12969;BME280;6549;53.128;8.182;2023-07-02T10:42:48;100463.47;;;22.29;68.33
12969;BME280;6549;53.128;8.182;2023-07-02T10:45:48;100460.00;;;21.92;68.17
12969;BME280;6549;53.128;8.182;2023-07-02T10:48:53;100466.41;;;21.57;67.14
12969;BME280;6549;53.128;8.182;2023-07-02T10:52:00;100479.50;;;20.65;69.22
12969;BME280;6549;53.128;8.182;2023-07-02T10:55:01;100485.97;;;20.44;73.73
12969;BME280;6549;53.128;8.182;2023-07-02T10:58:04;100492.34;;;20.23;77.35
12969;BME280;6549;53.128;8.182;2023-07-02T11:01:04;100494.53;;;20.28;80.90
12969;BME280;6549;53.128;8.182;2023-07-02T11:04:04;100491.59;;;20.00;77.19
12969;BME280;6549;53.128;8.182;2023-07-02T11:07:05;100491.69;;;19.88;77.25
12969;BME280;6549;53.128;8.182;2023-07-02T11:10:06;100497.34;;;19.53;83.79
12969;BME280;6549;53.128;8.182;2023-07-02T11:13:18;100496.47;;;19.44;87.44
12969;BME280;6549;53.128;8.182;2023-07-02T11:16:23;100487.69;;;19.67;87.58
12969;BME280;6549;53.128;8.182;2023-07-02T11:19:25;100502.66;;;20.35;85.29
12969;BME280;6549;53.128;8.182;2023-07-02T11:22:35;100497.84;;;20.75;83.53
12969;BME280;6549;53.128;8.182;2023-07-02T11:25:35;100502.72;;;21.11;79.37
12969;BME280;6549;53.128;8.182;2023-07-02T11:28:48;100489.38;;;21.06;78.70
12969;BME280;6549;53.128;8.182;2023-07-02T11:31:50;100505.56;;;21.38;86.26
12969;BME280;6549;53.128;8.182;2023-07-02T11:34:54;100494.53;;;21.62;78.41
12969;BME280;6549;53.128;8.182;2023-07-02T11:37:54;100498.56;;;21.52;75.71
12969;BME280;6549;53.128;8.182;2023-07-02T11:40:55;100502.94;;;21.53;70.79
12969;BME280;6549;53.128;8.182;2023-07-02T11:43:55;100495.16;;;21.57;68.56
12969;BME280;6549;53.128;8.182;2023-07-02T11:46:55;100500.69;;;22.12;65.17
12969;BME280;6549;53.128;8.182;2023-07-02T11:49:57;100495.59;;;22.01;61.95
12969;BME280;6549;53.128;8.182;2023-07-02T11:52:59;100507.25;;;21.90;59.34
12969;BME280;6549;53.128;8.182;2023-07-02T11:59:03;100498.91;;;21.45;63.81
12969;BME280;6549;53.128;8.182;2023-07-02T12:02:04;100508.53;;;21.35;69.91
12969;BME280;6549;53.128;8.182;2023-07-02T12:05:04;100514.13;;;21.62;72.43
12969;BME280;6549;53.128;8.182;2023-07-02T12:08:05;100515.59;;;22.18;73.64
12969;BME280;6549;53.128;8.182;2023-07-02T12:11:05;100513.47;;;21.76;72.55
12969;BME280;6549;53.128;8.182;2023-07-02T12:14:06;100517.53;;;21.57;82.48
12969;BME280;6549;53.128;8.182;2023-07-02T12:17:06;100517.19;;;21.82;79.50
12969;BME280;6549;53.128;8.182;2023-07-02T12:20:07;100509.03;;;22.30;74.56
12969;BME280;6549;53.128;8.182;2023-07-02T12:23:07;100519.81;;;22.55;70.77
12969;BME280;6549;53.128;8.182;2023-07-02T12:26:08;100523.41;;;22.05;72.60
12969;BME280;6549;53.128;8.182;2023-07-02T12:29:08;100533.22;;;21.36;74.85
12969;BME280;6549;53.128;8.182;2023-07-02T12:32:08;100545.94;;;20.70;79.84
12969;BME280;6549;53.128;8.182;2023-07-02T12:35:09;100538.06;;;20.47;81.90
12969;BME280;6549;53.128;8.182;2023-07-02T12:38:09;100545.22;;;20.48;84.78
12969;BME280;6549;53.128;8.182;2023-07-02T12:41:09;100552.25;;;20.61;83.74
12969;BME280;6549;53.128;8.182;2023-07-02T12:44:11;100535.44;;;20.92;82.45
12969;BME280;6549;53.128;8.182;2023-07-02T12:47:11;100538.97;;;21.42;75.45
12969;BME280;6549;53.128;8.182;2023-07-02T12:50:12;100533.19;;;22.09;70.30
12969;BME280;6549;53.128;8.182;2023-07-02T12:53:12;100540.22;;;22.47;66.83
12969;BME280;6549;53.128;8.182;2023-07-02T12:56:12;100547.44;;;22.29;63.49
12969;BME280;6549;53.128;8.182;2023-07-02T12:59:14;100555.44;;;21.67;64.14
12969;BME280;6549;53.128;8.182;2023-07-02T13:02:15;100558.97;;;21.22;69.08
12969;BME280;6549;53.128;8.182;2023-07-02T13:05:16;100566.47;;;20.94;67.35
12969;BME280;6549;53.128;8.182;2023-07-02T13:08:16;100566.44;;;20.85;67.00
12969;BME280;6549;53.128;8.182;2023-07-02T13:11:16;100566.22;;;21.11;66.57
12969;BME280;6549;53.128;8.182;2023-07-02T13:14:17;100563.56;;;21.07;66.33
12969;BME280;6549;53.128;8.182;2023-07-02T13:17:17;100565.25;;;21.04;66.34
12969;BME280;6549;53.128;8.182;2023-07-02T13:20:17;100571.78;;;21.01;67.38
12969;BME280;6549;53.128;8.182;2023-07-02T13:23:18;100575.91;;;21.19;61.25
12969;BME280;6549;53.128;8.182;2023-07-02T13:26:18;100575.47;;;21.84;63.93
12969;BME280;6549;53.128;8.182;2023-07-02T13:29:19;100572.22;;;21.67;59.61
12969;BME280;6549;53.128;8.182;2023-07-02T13:32:20;100579.97;;;21.45;61.40
12969;BME280;6549;53.128;8.182;2023-07-02T13:35:20;100569.56;;;21.36;59.20
12969;BME280;6549;53.128;8.182;2023-07-02T13:38:22;100583.41;;;21.58;60.77
12969;BME280;6549;53.128;8.182;2023-07-02T13:41:22;100579.03;;;21.48;61.01
12969;BME280;6549;53.128;8.182;2023-07-02T13:44:23;100582.09;;;21.23;60.47
12969;BME280;6549;53.128;8.182;2023-07-02T13:47:23;100590.03;;;20.93;60.73
12969;BME280;6549;53.128;8.182;2023-07-02T13:50:23;100599.81;;;20.80;60.89
12969;BME280;6549;53.128;8.182;2023-07-02T13:53:24;100597.22;;;20.63;59.97
12969;BME280;6549;53.128;8.182;2023-07-02T13:56:24;100600.13;;;20.91;59.81
12969;BME280;6549;53.128;8.182;2023-07-02T13:59:24;100600.97;;;21.10;58.40
12969;BME280;6549;53.128;8.182;2023-07-02T14:02:25;100604.16;;;20.90;59.17
12969;BME280;6549;53.128;8.182;2023-07-02T14:05:25;100604.47;;;20.83;60.26
12969;BME280;6549;53.128;8.182;2023-07-02T14:08:25;100603.63;;;20.73;60.37
12969;BME280;6549;53.128;8.182;2023-07-02T14:11:26;100603.09;;;20.56;61.07
12969;BME280;6549;53.128;8.182;2023-07-02T14:14:27;100606.09;;;20.40;64.73
12969;BME280;6549;53.128;8.182;2023-07-02T14:17:28;100598.91;;;20.30;64.26
12969;BME280;6549;53.128;8.182;2023-07-02T14:20:28;100606.75;;;20.44;64.35
12969;BME280;6549;53.128;8.182;2023-07-02T14:23:28;100600.41;;;20.44;64.66
12969;BME280;6549;53.128;8.182;2023-07-02T14:26:29;100608.13;;;20.40;66.10
12969;BME280;6549;53.128;8.182;2023-07-02T14:29:30;100619.59;;;20.20;68.65
12969;BME280;6549;53.128;8.182;2023-07-02T14:32:30;100616.91;;;19.73;69.87
12969;BME280;6549;53.128;8.182;2023-07-02T14:35:30;100627.72;;;19.71;72.52
12969;BME280;6549;53.128;8.182;2023-07-02T14:38:31;100611.91;;;19.90;75.42
12969;BME280;6549;53.128;8.182;2023-07-02T14:41:33;100616.50;;;20.40;71.64
12969;BME280;6549;53.128;8.182;2023-07-02T14:44:35;100611.22;;;20.42;72.11
12969;BME280;6549;53.128;8.182;2023-07-02T14:47:36;100613.88;;;20.24;69.26
12969;BME280;6549;53.128;8.182;2023-07-02T14:50:42;100623.53;;;20.10;68.66
12969;BME280;6549;53.128;8.182;2023-07-02T14:53:43;100609.22;;;19.99;71.60
12969;BME280;6549;53.128;8.182;2023-07-02T14:56:43;100621.56;;;20.32;70.83
12969;BME280;6549;53.128;8.182;2023-07-02T14:59:43;100624.13;;;20.27;72.12
12969;BME280;6549;53.128;8.182;2023-07-02T15:02:43;100622.09;;;20.05;70.54
12969;BME280;6549;53.128;8.182;2023-07-02T15:05:46;100625.16;;;19.98;73.29
12969;BME280;6549;53.128;8.182;2023-07-02T15:08:47;100622.03;;;19.96;70.64
12969;BME280;6549;53.128;8.182;2023-07-02T15:11:47;100628.44;;;19.84;70.92
12969;BME280;6549;53.128;8.182;2023-07-02T15:14:48;100620.91;;;19.72;75.33
12969;BME280;6549;53.128;8.182;2023-07-02T15:17:48;100626.94;;;19.70;73.66
12969;BME280;6549;53.128;8.182;2023-07-02T15:20:51;100623.31;;;19.83;70.35
12969;BME280;6549;53.128;8.182;2023-07-02T15:23:53;100621.38;;;19.92;70.33
12969;BME280;6549;53.128;8.182;2023-07-02T15:26:53;100623.38;;;19.92;69.00
12969;BME280;6549;53.128;8.182;2023-07-02T15:29:54;100625.78;;;19.81;70.84
12969;BME280;6549;53.128;8.182;2023-07-02T15:32:55;100629.59;;;19.74;70.26
12969;BME280;6549;53.128;8.182;2023-07-02T15:35:55;100626.53;;;19.59;72.45
12969;BME280;6549;53.128;8.182;2023-07-02T15:38:58;100626.09;;;19.48;74.98
12969;BME280;6549;53.128;8.182;2023-07-02T15:41:59;100628.56;;;19.46;75.08
12969;BME280;6549;53.128;8.182;2023-07-02T15:45:02;100624.88;;;19.49;76.14
12969;BME280;6549;53.128;8.182;2023-07-02T15:48:03;100620.66;;;19.45;78.40
12969;BME280;6549;53.128;8.182;2023-07-02T15:51:04;100626.09;;;19.36;80.83
12969;BME280;6549;53.128;8.182;2023-07-02T15:54:05;100625.56;;;19.28;80.20
12969;BME280;6549;53.128;8.182;2023-07-02T15:57:06;100623.34;;;19.23;78.87